createdAt,value
2023-03-01T00:00:05.400Z,12.97
2023-03-01T00:02:40.865Z,13.00
2023-03-01T00:05:09.791Z,11.70
2023-03-01T00:07:37.783Z,9.97
2023-03-01T00:10:06.429Z,13.50
2023-03-01T00:12:34.414Z,12.37
2023-03-01T00:15:02.348Z,13.20
2023-03-01T00:17:30.315Z,11.77
2023-03-01T00:19:59.746Z,10.57
2023-03-01T00:22:29.238Z,15.57
2023-03-01T00:24:57.284Z,11.50
2023-03-01T00:27:25.355Z,12.90
2023-03-01T00:29:54.433Z,12.83
2023-03-01T00:32:22.472Z,12.60
2023-03-01T00:34:56.424Z,12.63
2023-03-01T00:37:26.219Z,10.90
2023-03-01T00:39:54.259Z,12.07
2023-03-01T00:42:23.196Z,11.47
2023-03-01T00:44:51.229Z,11.40
2023-03-01T00:47:19.217Z,14.27
2023-03-01T00:49:48.406Z,12.00
2023-03-01T00:52:17.662Z,12.27
2023-03-01T00:54:47.320Z,11.70
2023-03-01T00:57:15.501Z,12.23
2023-03-01T00:59:43.510Z,14.37
2023-03-01T01:02:11.480Z,12.50
2023-03-01T01:04:39.954Z,11.13
2023-03-01T01:07:07.959Z,12.40
2023-03-01T01:09:35.939Z,13.10
2023-03-01T01:12:05.556Z,14.10
2023-03-01T01:14:33.671Z,22.50
2023-03-01T01:17:01.661Z,12.50
2023-03-01T01:19:29.745Z,14.30
2023-03-01T01:22:00.088Z,13.17
2023-03-01T01:24:28.202Z,13.90
2023-03-01T01:26:56.228Z,14.47
2023-03-01T01:29:25.651Z,14.50
2023-03-01T01:31:53.690Z,14.17
2023-03-01T01:34:23.478Z,14.27
2023-03-01T01:36:52.221Z,15.73
2023-03-01T01:39:20.268Z,15.73
2023-03-01T01:41:48.618Z,12.13
2023-03-01T01:44:19.823Z,14.53
2023-03-01T01:46:51.533Z,11.93
2023-03-01T01:49:30.091Z,13.77
2023-03-01T01:52:03.150Z,15.70
2023-03-01T01:54:36.447Z,14.40
2023-03-01T01:57:06.280Z,13.80
2023-03-01T01:59:34.823Z,12.80
2023-03-01T02:02:05.628Z,13.27
2023-03-01T02:04:34.444Z,11.80
2023-03-01T02:07:05.858Z,14.67
2023-03-01T02:09:34.337Z,14.83
2023-03-01T02:12:03.519Z,15.23
2023-03-01T02:14:31.552Z,14.43
2023-03-01T02:16:59.600Z,13.53
2023-03-01T02:19:37.756Z,12.87
2023-03-01T02:22:12.463Z,14.87
2023-03-01T02:24:46.847Z,12.30
2023-03-01T02:27:17.199Z,14.67
2023-03-01T02:29:46.564Z,14.90
2023-03-01T02:32:16.041Z,13.50
2023-03-01T02:34:44.317Z,18.30
2023-03-01T02:37:21.514Z,15.10
2023-03-01T02:39:50.858Z,16.27
2023-03-01T02:42:25.571Z,13.93
2023-03-01T02:44:56.607Z,15.60
2023-03-01T02:47:24.629Z,13.67
2023-03-01T02:49:52.610Z,14.50
2023-03-01T02:52:35.771Z,14.23
2023-03-01T02:55:06.768Z,15.47
2023-03-01T02:57:36.573Z,11.70
2023-03-01T03:00:09.149Z,11.37
2023-03-01T03:02:38.850Z,17.53
2023-03-01T03:05:13.329Z,11.70
2023-03-01T03:07:43.737Z,11.80
2023-03-01T03:10:15.176Z,13.10
2023-03-01T03:12:44.039Z,13.83
2023-03-01T03:15:13.737Z,14.07
2023-03-01T03:17:45.265Z,16.03
2023-03-01T03:20:19.800Z,15.20
2023-03-01T03:22:48.599Z,14.00
2023-03-01T03:25:16.825Z,12.90
2023-03-01T03:27:47.549Z,12.60
2023-03-01T03:30:19.405Z,13.03
2023-03-01T03:32:53.166Z,13.10
2023-03-01T03:35:22.195Z,11.87
2023-03-01T03:38:07.022Z,12.70
2023-03-01T03:40:36.877Z,12.17
2023-03-01T03:43:05.524Z,13.40
2023-03-01T03:45:36.143Z,11.77
2023-03-01T03:48:05.859Z,14.23
2023-03-01T03:50:34.693Z,11.70
2023-03-01T03:53:03.879Z,13.87
2023-03-01T03:55:31.989Z,13.07
2023-03-01T03:58:03.176Z,14.80
2023-03-01T04:00:31.269Z,15.93
2023-03-01T04:03:01.674Z,14.93
2023-03-01T04:05:30.171Z,12.97
2023-03-01T04:08:08.190Z,14.67
2023-03-01T04:10:38.306Z,13.43
2023-03-01T04:13:06.965Z,14.70
2023-03-01T04:15:35.427Z,13.70
2023-03-01T04:18:05.902Z,14.30
2023-03-01T04:20:35.722Z,16.00
2023-03-01T04:23:11.618Z,14.10
2023-03-01T04:25:41.192Z,13.00
2023-03-01T04:28:10.197Z,14.67
2023-03-01T04:30:38.558Z,16.30
2023-03-01T04:33:09.822Z,14.00
2023-03-01T04:35:39.432Z,17.10
2023-03-01T04:38:07.936Z,14.83
2023-03-01T04:40:36.013Z,15.43
2023-03-01T04:43:04.670Z,16.07
2023-03-01T04:45:35.382Z,15.77
2023-03-01T04:48:03.867Z,17.70
2023-03-01T04:50:33.171Z,13.63
2023-03-01T04:53:01.101Z,14.37
2023-03-01T04:55:29.755Z,14.50
2023-03-01T04:57:57.821Z,13.77
2023-03-01T05:00:25.924Z,14.00
2023-03-01T05:02:55.777Z,13.57
2023-03-01T05:05:26.923Z,14.00
2023-03-01T05:07:57.859Z,15.40
2023-03-01T05:10:26.462Z,16.50
2023-03-01T05:12:54.612Z,15.37
2023-03-01T05:15:26.532Z,15.07
2023-03-01T05:17:55.216Z,14.23
2023-03-01T05:20:24.890Z,13.97
2023-03-01T05:22:54.197Z,14.43
2023-03-01T05:25:23.696Z,15.13
2023-03-01T05:27:51.685Z,16.00
2023-03-01T05:30:20.429Z,15.33
2023-03-01T05:32:50.616Z,11.50
2023-03-01T05:35:20.160Z,14.37
2023-03-01T05:37:49.867Z,13.63
2023-03-01T05:40:20.071Z,19.57
2023-03-01T05:42:50.910Z,14.60
2023-03-01T05:45:20.043Z,17.70
2023-03-01T05:47:49.618Z,16.13
2023-03-01T05:50:20.582Z,15.33
2023-03-01T05:52:50.432Z,13.93
2023-03-01T05:55:18.924Z,14.97
2023-03-01T05:57:47.032Z,16.37
2023-03-01T06:00:18.414Z,15.10
2023-03-01T06:02:46.569Z,17.80
2023-03-01T06:05:15.384Z,13.43
2023-03-01T06:07:43.813Z,12.23
2023-03-01T06:10:13.417Z,12.80
2023-03-01T06:12:43.066Z,16.87
2023-03-01T06:15:12.632Z,15.27
2023-03-01T06:17:44.342Z,15.60
2023-03-01T06:20:15.824Z,16.47
2023-03-01T06:22:44.614Z,14.87
2023-03-01T06:25:14.429Z,18.97
2023-03-01T06:27:43.132Z,15.53
2023-03-01T06:30:13.045Z,15.17
2023-03-01T06:32:43.905Z,15.10
2023-03-01T06:35:13.020Z,14.80
2023-03-01T06:37:41.333Z,16.70
2023-03-01T06:40:12.712Z,16.03
2023-03-01T06:42:42.699Z,15.70
2023-03-01T06:45:12.503Z,12.20
2023-03-01T06:47:41.954Z,14.70
2023-03-01T06:50:11.448Z,15.07
2023-03-01T06:52:39.657Z,16.40
2023-03-01T06:55:08.855Z,14.23
2023-03-01T06:57:36.952Z,17.10
2023-03-01T07:00:05.922Z,15.60
2023-03-01T07:02:34.322Z,17.60
2023-03-01T07:05:03.873Z,15.10
2023-03-01T07:07:32.168Z,19.23
2023-03-01T07:10:00.272Z,19.37
2023-03-01T07:12:28.404Z,15.80
2023-03-01T07:14:56.649Z,14.87
2023-03-01T07:17:24.849Z,15.27
2023-03-01T07:19:53.975Z,19.33
2023-03-01T07:22:23.477Z,17.50
2023-03-01T07:24:51.610Z,19.10
2023-03-01T07:27:19.976Z,18.80
2023-03-01T07:29:48.236Z,16.80
2023-03-01T07:32:16.430Z,17.73
2023-03-01T07:34:44.940Z,16.93
2023-03-01T07:37:13.097Z,20.10
2023-03-01T07:39:43.058Z,17.23
2023-03-01T07:42:11.205Z,18.07
2023-03-01T07:44:40.668Z,17.07
2023-03-01T07:47:08.922Z,17.03
2023-03-01T07:49:37.112Z,16.30
2023-03-01T07:52:05.782Z,15.57
2023-03-01T07:54:34.342Z,17.53
2023-03-01T07:57:04.560Z,17.37
2023-03-01T07:59:33.039Z,17.00
2023-03-01T08:02:01.445Z,18.37
2023-03-01T08:04:31.049Z,17.07
2023-03-01T08:06:59.319Z,15.53
2023-03-01T08:09:28.128Z,16.23
2023-03-01T08:11:56.602Z,15.10
2023-03-01T08:14:26.414Z,19.10
2023-03-01T08:16:56.053Z,17.00
2023-03-01T08:19:24.466Z,16.13
2023-03-01T08:21:52.628Z,17.87
2023-03-01T08:24:20.772Z,18.40
2023-03-01T08:26:49.214Z,16.97
2023-03-01T08:29:17.337Z,18.27
2023-03-01T08:31:46.942Z,19.27
2023-03-01T08:34:16.707Z,16.63
2023-03-01T08:36:46.293Z,18.77
2023-03-01T08:39:16.196Z,17.43
2023-03-01T08:41:47.031Z,19.03
2023-03-01T08:44:18.072Z,21.27
2023-03-01T08:46:47.723Z,18.63
2023-03-01T08:49:17.307Z,20.30
2023-03-01T08:51:45.954Z,19.60
2023-03-01T08:54:15.754Z,17.40
2023-03-01T08:56:44.191Z,16.70
2023-03-01T08:59:12.815Z,21.20
2023-03-01T09:01:44.113Z,18.13
2023-03-01T09:04:14.123Z,15.47
2023-03-01T09:06:43.108Z,16.83
2023-03-01T09:09:15.943Z,17.10
2023-03-01T09:11:44.085Z,17.00
2023-03-01T09:14:13.099Z,18.47
2023-03-01T09:16:41.294Z,19.63
2023-03-01T09:19:09.359Z,17.00
2023-03-01T09:21:41.153Z,16.33
2023-03-01T09:24:14.521Z,18.10
2023-03-01T09:26:42.995Z,16.63
2023-03-01T09:29:11.525Z,18.30
2023-03-01T09:31:46.547Z,18.03
2023-03-01T09:34:17.811Z,16.77
2023-03-01T09:36:47.407Z,17.23
2023-03-01T09:39:15.802Z,17.67
2023-03-01T09:41:50.402Z,17.20
2023-03-01T09:44:26.085Z,15.70
2023-03-01T09:46:54.254Z,17.50
2023-03-01T09:49:25.395Z,16.57
2023-03-01T09:52:02.179Z,15.87
2023-03-01T09:54:30.293Z,16.87
2023-03-01T09:57:15.451Z,15.60
2023-03-01T10:00:07.506Z,16.80
2023-03-01T10:02:41.414Z,16.27
2023-03-01T10:05:21.112Z,15.27
2023-03-01T10:07:58.338Z,15.83
2023-03-01T10:10:30.682Z,14.93
2023-03-01T10:12:59.208Z,14.40
2023-03-01T10:15:32.620Z,14.83
2023-03-01T10:18:06.721Z,15.87
2023-03-01T10:20:44.148Z,12.07
2023-03-01T10:23:15.144Z,13.03
2023-03-01T10:25:50.518Z,15.13
2023-03-01T10:28:20.395Z,13.90
2023-03-01T10:30:48.619Z,13.30
2023-03-01T10:33:20.255Z,15.87
2023-03-01T10:35:49.657Z,18.70
2023-03-01T10:38:21.405Z,17.20
2023-03-01T10:40:54.564Z,12.13
2023-03-01T10:43:23.086Z,13.23
2023-03-01T10:45:51.274Z,16.03
2023-03-01T10:48:22.244Z,15.43
2023-03-01T10:50:51.940Z,14.07
2023-03-01T10:53:31.110Z,13.07
2023-03-01T10:56:08.520Z,13.07
2023-03-01T10:58:44.702Z,14.80
2023-03-01T11:01:28.768Z,12.53
2023-03-01T11:04:13.148Z,14.10
2023-03-01T11:07:00.568Z,12.53
2023-03-01T11:09:38.494Z,13.33
2023-03-01T11:12:10.701Z,13.93
2023-03-01T11:14:41.799Z,14.07
2023-03-01T11:17:16.174Z,12.13
2023-03-01T11:19:54.248Z,15.10
2023-03-01T11:22:29.707Z,14.07
2023-03-01T11:25:09.267Z,13.77
2023-03-01T11:27:42.128Z,13.70
2023-03-01T11:30:19.459Z,12.23
2023-03-01T11:32:50.224Z,15.10
2023-03-01T11:35:21.197Z,12.83
2023-03-01T11:38:01.722Z,11.27
2023-03-01T11:40:36.237Z,12.87
2023-03-01T11:43:16.658Z,12.97
2023-03-01T11:46:04.828Z,13.83
2023-03-01T11:48:55.890Z,32.37
2023-03-01T11:51:28.012Z,12.60
2023-03-01T11:54:06.223Z,14.90
2023-03-01T11:56:41.341Z,12.50
2023-03-01T11:59:41.162Z,12.87
2023-03-01T12:02:53.920Z,11.27
2023-03-01T12:05:43.846Z,12.80
2023-03-01T12:08:17.069Z,12.40
2023-03-01T12:10:51.163Z,11.73
2023-03-01T12:13:44.085Z,10.90
2023-03-01T12:16:26.021Z,14.70
2023-03-01T12:19:25.567Z,13.37
2023-03-01T12:22:05.533Z,9.40
2023-03-01T12:24:54.602Z,13.17
2023-03-01T12:27:34.583Z,9.67
2023-03-01T12:30:18.302Z,9.37
2023-03-01T12:32:54.195Z,9.13
2023-03-01T12:35:38.619Z,9.47
2023-03-01T12:38:19.801Z,11.30
2023-03-01T12:41:07.356Z,9.77
2023-03-01T12:43:43.812Z,9.93
2023-03-01T12:46:21.284Z,8.77
2023-03-01T12:48:56.275Z,11.87
2023-03-01T12:51:27.071Z,11.07
2023-03-01T12:53:57.705Z,10.67
2023-03-01T12:56:28.013Z,9.53
2023-03-01T12:59:04.941Z,12.70
2023-03-01T13:01:43.545Z,11.07
2023-03-01T13:04:26.108Z,10.83
2023-03-01T13:07:01.273Z,10.83
2023-03-01T13:09:36.214Z,8.40
2023-03-01T13:12:19.053Z,8.10
2023-03-01T13:14:48.998Z,10.67
2023-03-01T13:17:36.029Z,10.87
2023-03-01T13:20:05.180Z,8.90
2023-03-01T13:22:41.745Z,11.63
2023-03-01T13:25:19.015Z,12.73
2023-03-01T13:27:48.526Z,8.67
2023-03-01T13:30:44.456Z,10.53
2023-03-01T13:33:47.858Z,9.63
2023-03-01T13:36:49.909Z,13.87
2023-03-01T13:39:41.464Z,9.97
2023-03-01T13:42:33.189Z,10.37
2023-03-01T13:45:02.502Z,10.03
2023-03-01T13:47:30.756Z,10.40
2023-03-01T13:50:01.911Z,8.17
2023-03-01T13:52:40.453Z,10.03
2023-03-01T13:55:19.760Z,9.73
2023-03-01T13:57:54.496Z,7.30
2023-03-01T14:00:32.347Z,12.07
2023-03-01T14:03:06.651Z,8.27
2023-03-01T14:05:37.060Z,11.53
2023-03-01T14:08:05.678Z,7.73
2023-03-01T14:10:39.120Z,7.47
2023-03-01T14:13:19.652Z,7.87
2023-03-01T14:15:52.095Z,8.60
2023-03-01T14:18:24.434Z,9.27
2023-03-01T14:20:54.239Z,8.83
2023-03-01T14:23:24.028Z,9.20
2023-03-01T14:25:53.885Z,11.37
2023-03-01T14:28:23.885Z,7.40
2023-03-01T14:30:53.467Z,7.87
2023-03-01T14:33:25.903Z,8.97
2023-03-01T14:35:57.649Z,11.30
2023-03-01T14:38:32.844Z,7.87
2023-03-01T14:41:06.311Z,9.23
2023-03-01T14:43:35.382Z,8.07
2023-03-01T14:46:04.339Z,7.57
2023-03-01T14:48:35.212Z,9.17
2023-03-01T14:51:07.387Z,7.77
2023-03-01T14:53:45.852Z,8.60
2023-03-01T14:56:20.033Z,7.23
2023-03-01T14:58:53.138Z,8.70
2023-03-01T15:01:22.148Z,9.57
2023-03-01T15:03:51.416Z,8.93
2023-03-01T15:06:24.774Z,6.93
2023-03-01T15:08:54.661Z,5.80
2023-03-01T15:11:26.062Z,6.20
2023-03-01T15:13:56.239Z,7.20
2023-03-01T15:16:26.345Z,5.83
2023-03-01T15:18:57.490Z,8.80
2023-03-01T15:21:29.996Z,8.87
2023-03-01T15:24:02.289Z,9.10
2023-03-01T15:26:33.393Z,8.10
2023-03-01T15:29:03.041Z,9.07
2023-03-01T15:31:36.182Z,8.87
2023-03-01T15:34:13.088Z,11.57
2023-03-01T15:36:51.108Z,12.27
2023-03-01T15:39:36.485Z,10.53
2023-03-01T15:42:05.071Z,7.63
2023-03-01T15:44:43.328Z,7.33
2023-03-01T15:47:27.197Z,5.37
2023-03-01T15:49:56.618Z,8.53
2023-03-01T15:52:30.148Z,5.67
2023-03-01T15:55:03.479Z,6.10
2023-03-01T15:57:32.132Z,5.10
2023-03-01T16:00:00.175Z,7.20
2023-03-01T16:02:28.292Z,5.00
2023-03-01T16:04:57.465Z,6.77
2023-03-01T16:07:29.020Z,5.60
2023-03-01T16:09:57.062Z,5.23
2023-03-01T16:12:25.697Z,4.87
2023-03-01T16:14:54.985Z,7.20
2023-03-01T16:17:23.154Z,9.77
2023-03-01T16:19:51.231Z,7.83
2023-03-01T16:22:25.829Z,8.37
2023-03-01T16:24:55.677Z,16.27
2023-03-01T16:27:25.554Z,9.33
2023-03-01T16:29:54.001Z,8.87
2023-03-01T16:32:22.558Z,10.60
2023-03-01T16:34:50.959Z,11.83
2023-03-01T16:37:20.222Z,11.53
2023-03-01T16:39:49.852Z,11.70
2023-03-01T16:42:19.606Z,10.63
2023-03-01T16:44:47.614Z,9.23
2023-03-01T16:47:15.596Z,10.23
2023-03-01T16:49:43.824Z,10.30
2023-03-01T16:52:12.291Z,9.33
2023-03-01T16:54:41.579Z,10.87
2023-03-01T16:57:10.045Z,10.73
2023-03-01T16:59:39.554Z,7.40
2023-03-01T17:02:09.205Z,7.63
2023-03-01T17:04:37.939Z,12.23
2023-03-01T17:07:08.365Z,8.03
2023-03-01T17:09:37.818Z,10.43
2023-03-01T17:12:06.344Z,8.27
2023-03-01T17:14:34.375Z,7.30
2023-03-01T17:17:03.832Z,8.17
2023-03-01T17:19:32.851Z,7.40
2023-03-01T17:22:01.942Z,9.40
2023-03-01T17:24:31.208Z,8.10
2023-03-01T17:26:59.369Z,9.73
2023-03-01T17:29:27.444Z,9.83
2023-03-01T17:31:56.773Z,7.10
2023-03-01T17:34:27.045Z,6.30
2023-03-01T17:36:55.037Z,8.33
2023-03-01T17:39:25.926Z,9.10
2023-03-01T17:41:53.969Z,10.67
2023-03-01T17:44:22.020Z,8.90
2023-03-01T17:46:50.002Z,8.77
2023-03-01T17:49:18.308Z,11.57
2023-03-01T17:51:47.688Z,10.20
2023-03-01T17:54:15.620Z,10.33
2023-03-01T17:56:43.871Z,9.10
2023-03-01T17:59:12.018Z,8.43
2023-03-01T18:01:42.782Z,10.73
2023-03-01T18:04:12.082Z,10.10
2023-03-01T18:06:41.144Z,9.03
2023-03-01T18:09:11.830Z,9.83
2023-03-01T18:11:42.068Z,12.13
2023-03-01T18:14:10.134Z,8.23
2023-03-01T18:16:39.792Z,9.47
2023-03-01T18:19:08.358Z,9.37
2023-03-01T18:21:36.364Z,10.37
2023-03-01T18:24:04.637Z,10.33
2023-03-01T18:26:34.624Z,7.07
2023-03-01T18:29:04.742Z,9.63
2023-03-01T18:31:35.604Z,9.27
2023-03-01T18:34:04.015Z,7.97
2023-03-01T18:36:33.934Z,8.83
2023-03-01T18:39:03.075Z,6.63
2023-03-01T18:41:32.810Z,7.93
2023-03-01T18:44:03.252Z,7.03
2023-03-01T18:46:31.733Z,6.93
2023-03-01T18:48:59.975Z,8.57
2023-03-01T18:51:30.279Z,8.40
2023-03-01T18:53:59.532Z,9.97
2023-03-01T18:56:28.173Z,7.50
2023-03-01T18:58:56.916Z,8.63
2023-03-01T19:01:27.984Z,9.33
2023-03-01T19:03:56.479Z,8.47
2023-03-01T19:06:25.212Z,9.53
2023-03-01T19:08:54.283Z,7.27
2023-03-01T19:11:22.730Z,9.83
2023-03-01T19:13:51.887Z,8.60
2023-03-01T19:16:22.352Z,10.40
2023-03-01T19:18:51.795Z,8.50
2023-03-01T19:21:26.446Z,11.87
2023-03-01T19:23:56.802Z,8.47
2023-03-01T19:26:27.253Z,7.27
2023-03-01T19:28:56.322Z,8.23
2023-03-01T19:31:26.430Z,7.07
2023-03-01T19:34:09.951Z,8.87
2023-03-01T19:36:39.183Z,7.90
2023-03-01T19:39:07.957Z,8.20
2023-03-01T19:41:36.838Z,10.83
2023-03-01T19:44:06.057Z,9.33
2023-03-01T19:46:35.487Z,10.70
2023-03-01T19:49:06.424Z,9.10
2023-03-01T19:51:36.671Z,10.40
2023-03-01T19:54:06.268Z,9.20
2023-03-01T19:56:35.462Z,8.43
2023-03-01T19:59:04.776Z,10.53
2023-03-01T20:01:34.504Z,9.97
2023-03-01T20:04:03.581Z,9.30
2023-03-01T20:06:34.123Z,10.63
2023-03-01T20:09:12.335Z,9.13
2023-03-01T20:11:48.860Z,8.60
2023-03-01T20:14:17.161Z,13.47
2023-03-01T20:16:45.915Z,12.43
2023-03-01T20:19:14.190Z,9.67
2023-03-01T20:21:43.792Z,10.60
2023-03-01T20:24:12.586Z,11.57
2023-03-01T20:26:41.071Z,13.80
2023-03-01T20:29:09.990Z,13.13
2023-03-01T20:31:42.477Z,9.47
2023-03-01T20:34:11.582Z,11.30
2023-03-01T20:36:41.211Z,11.27
2023-03-01T20:39:11.789Z,12.20
2023-03-01T20:41:41.285Z,13.90
2023-03-01T20:44:11.767Z,13.37
2023-03-01T20:46:40.178Z,11.37
2023-03-01T20:49:09.555Z,12.00
2023-03-01T20:51:38.025Z,11.93
2023-03-01T20:54:06.861Z,15.00
2023-03-01T20:56:36.701Z,12.37
2023-03-01T20:59:05.620Z,13.17
2023-03-01T21:01:33.884Z,15.37
2023-03-01T21:04:02.856Z,15.40
2023-03-01T21:06:32.356Z,15.93
2023-03-01T21:09:00.696Z,14.37
2023-03-01T21:11:29.350Z,15.57
2023-03-01T21:13:59.891Z,16.73
2023-03-01T21:16:28.299Z,13.43
2023-03-01T21:18:56.500Z,14.10
2023-03-01T21:21:25.364Z,14.90
2023-03-01T21:23:54.848Z,14.97
2023-03-01T21:26:24.381Z,14.90
2023-03-01T21:28:55.653Z,15.20
2023-03-01T21:31:28.556Z,15.77
2023-03-01T21:33:58.946Z,16.40
2023-03-01T21:36:30.405Z,18.53
2023-03-01T21:39:00.509Z,15.40
2023-03-01T21:41:30.379Z,17.03
2023-03-01T21:44:00.592Z,15.83
2023-03-01T21:46:33.697Z,17.37
2023-03-01T21:49:02.677Z,18.80
2023-03-01T21:51:31.399Z,18.33
2023-03-01T21:54:01.017Z,17.00
2023-03-01T21:56:31.744Z,14.60
2023-03-01T21:59:00.425Z,18.47
2023-03-01T22:01:30.843Z,17.33
2023-03-01T22:04:00.700Z,18.43
2023-03-01T22:06:34.115Z,19.30
2023-03-01T22:09:06.489Z,19.00
2023-03-01T22:11:36.155Z,20.03
2023-03-01T22:14:04.873Z,16.03
2023-03-01T22:16:36.505Z,19.60
2023-03-01T22:19:05.498Z,17.83
2023-03-01T22:21:33.652Z,17.20
2023-03-01T22:24:04.015Z,21.80
2023-03-01T22:26:35.227Z,20.27
2023-03-01T22:29:07.298Z,19.50
2023-03-01T22:31:40.386Z,23.70
2023-03-01T22:34:08.712Z,25.67
2023-03-01T22:36:39.303Z,21.30
2023-03-01T22:39:07.654Z,24.03
2023-03-01T22:41:37.675Z,30.07
2023-03-01T22:44:06.047Z,29.67
2023-03-01T22:46:34.508Z,36.10
2023-03-01T22:49:05.405Z,32.90
2023-03-01T22:51:36.196Z,33.50
2023-03-01T22:54:10.869Z,33.17
2023-03-01T22:56:43.024Z,36.10
2023-03-01T22:59:13.542Z,31.13
2023-03-01T23:01:46.444Z,28.57
2023-03-01T23:04:17.571Z,30.67
2023-03-01T23:06:51.868Z,26.13
2023-03-01T23:09:21.652Z,27.13
2023-03-01T23:11:50.814Z,27.07
2023-03-01T23:14:19.461Z,25.90
2023-03-01T23:16:47.669Z,23.70
2023-03-01T23:19:17.608Z,22.17
2023-03-01T23:21:48.501Z,23.57
2023-03-01T23:24:17.087Z,24.47
2023-03-01T23:26:45.832Z,22.37
2023-03-01T23:29:13.893Z,19.27
2023-03-01T23:31:41.981Z,19.77
2023-03-01T23:34:10.020Z,19.87
2023-03-01T23:36:45.154Z,20.33
2023-03-01T23:39:14.818Z,22.97
2023-03-01T23:41:42.827Z,21.03
2023-03-01T23:44:14.317Z,22.83
2023-03-01T23:46:43.082Z,23.00
2023-03-01T23:49:12.639Z,21.93
2023-03-01T23:51:44.632Z,21.03
2023-03-01T23:54:14.020Z,20.53
2023-03-01T23:56:43.771Z,16.47
2023-03-01T23:59:14.330Z,17.43
